Time;durP1;ratioP1;P1;durP2;ratioP2;P2;SDS_P1;SDS_P2;PMS_P1;PMS_P2;Temp;Humidity;BMP_temperature;BMP_pressure;BME280_temperature;BME280_humidity;BME280_pressure;Samples;Min_cycle;Max_cycle;Signal;HPM_P1;HPM_P2
2022/06/21 00:01:02;;;;;;;0.00;0.00;;;14.70;99.90;;;;;;4972369;28;20037;-69
2022/06/21 00:03:30;;;;;;;0.00;0.00;;;14.90;99.90;;;;;;4971978;28;20078;-69
2022/06/21 00:05:57;;;;;;;0.00;0.00;;;14.70;99.90;;;;;;4955942;28;20030;-69
2022/06/21 00:08:37;;;;;;;0.10;0.10;;;14.30;99.90;;;;;;4971782;28;20062;-69
2022/06/21 00:11:16;;;;;;;0.08;0.08;;;14.10;99.90;;;;;;4971797;28;20034;-69
2022/06/21 00:13:42;;;;;;;0.47;0.47;;;13.70;99.90;;;;;;4972256;28;20034;-69
2022/06/21 00:16:13;;;;;;;0.25;0.25;;;13.60;99.90;;;;;;4973442;28;20568;-69
2022/06/21 00:18:41;;;;;;;0.00;0.00;;;13.50;99.90;;;;;;4971398;28;20046;-69
2022/06/21 00:21:18;;;;;;;0.00;0.00;;;13.50;99.90;;;;;;4971377;28;20082;-69
2022/06/21 00:23:44;;;;;;;1.30;0.50;;;13.40;99.90;;;;;;4972969;28;20031;-69
2022/06/21 00:26:16;;;;;;;0.00;0.00;;;13.60;99.90;;;;;;4973063;28;20038;-69
2022/06/21 00:28:43;;;;;;;0.00;0.00;;;13.60;99.90;;;;;;4971287;28;20403;-69
2022/06/21 00:31:24;;;;;;;0.00;0.00;;;13.70;99.90;;;;;;4971591;28;20495;-69
2022/06/21 00:33:50;;;;;;;0.00;0.00;;;13.90;99.90;;;;;;4971627;28;20038;-69
2022/06/21 00:36:37;;;;;;;0.00;0.00;;;14.00;99.90;;;;;;4955330;28;20022;-69
2022/06/21 00:39:05;;;;;;;0.00;0.00;;;13.90;99.90;;;;;;4970907;28;20352;-69
2022/06/21 00:42:13;;;;;;;0.00;0.00;;;14.00;99.90;;;;;;4971395;28;20030;-69
2022/06/21 00:45:06;;;;;;;0.00;0.00;;;14.20;99.90;;;;;;4971402;28;20514;-69
2022/06/21 00:47:50;;;;;;;0.00;0.00;;;14.00;99.90;;;;;;4975740;28;20480;-69
2022/06/21 00:50:29;;;;;;;0.00;0.00;;;14.10;99.90;;;;;;4971080;28;20049;-69
2022/06/21 00:53:19;;;;;;;0.00;0.00;;;13.90;99.90;;;;;;4971203;28;20061;-69
2022/06/21 00:56:14;;;;;;;0.05;0.05;;;13.40;99.90;;;;;;4972783;28;20089;-69
2022/06/21 00:58:40;;;;;;;0.10;0.10;;;13.20;99.90;;;;;;4957450;28;20107;-69
2022/06/21 01:01:15;;;;;;;0.10;0.10;;;13.20;99.90;;;;;;4972222;28;20059;-70
2022/06/21 01:03:47;;;;;;;0.00;0.00;;;13.30;99.90;;;;;;4970812;28;20034;-69
2022/06/21 01:06:23;;;;;;;0.17;0.10;;;13.50;99.90;;;;;;4965970;28;20045;-69
2022/06/21 01:08:56;;;;;;;0.00;0.00;;;13.50;99.90;;;;;;4967391;28;20035;-69
2022/06/21 01:11:40;;;;;;;0.35;0.30;;;13.60;99.90;;;;;;4971048;28;20035;-69
2022/06/21 01:14:08;;;;;;;0.10;0.10;;;13.60;99.90;;;;;;4986391;28;20035;-69
2022/06/21 01:16:35;;;;;;;0.00;0.00;;;13.70;99.90;;;;;;4986682;28;20034;-69
2022/06/21 01:19:06;;;;;;;0.00;0.00;;;13.60;99.90;;;;;;4986379;28;20038;-69
2022/06/21 01:21:33;;;;;;;;;;;13.70;99.90;;;;;;4986989;28;20086;-69
2022/06/21 01:24:16;;;;;;;0.00;0.00;;;13.80;99.90;;;;;;4971089;28;19910;-69
2022/06/21 01:26:56;;;;;;;0.00;0.00;;;13.90;99.90;;;;;;4986443;28;20031;-69
2022/06/21 01:29:30;;;;;;;0.05;0.05;;;13.80;99.90;;;;;;4985058;28;20102;-69
2022/06/21 01:32:01;;;;;;;0.00;0.00;;;13.60;99.90;;;;;;4970643;28;20506;-69
2022/06/21 01:34:28;;;;;;;0.00;0.00;;;13.80;99.90;;;;;;4986550;28;20619;-69
2022/06/21 01:37:06;;;;;;;0.10;0.10;;;13.90;99.90;;;;;;4971677;28;20062;-69
2022/06/21 01:39:55;;;;;;;0.10;0.10;;;13.60;99.90;;;;;;4971367;28;20046;-69
2022/06/21 01:42:46;;;;;;;0.45;0.22;;;13.60;99.90;;;;;;4985976;28;20054;-69
2022/06/21 01:45:23;;;;;;;0.00;0.00;;;13.50;99.90;;;;;;4972020;28;20023;-69
2022/06/21 01:48:09;;;;;;;0.35;0.17;;;13.30;99.90;;;;;;4970664;28;20031;-69
2022/06/21 01:50:38;;;;;;;0.60;0.60;;;13.00;99.90;;;;;;4970113;28;20031;-69
2022/06/21 01:53:07;;;;;;;0.20;0.20;;;13.10;99.90;;;;;;4938572;28;20044;-69
2022/06/21 01:55:45;;;;;;;0.00;0.00;;;13.40;99.90;;;;;;4970194;28;20062;-69
2022/06/21 01:58:26;;;;;;;0.00;0.00;;;13.30;99.90;;;;;;4954521;28;20023;-69
2022/06/21 02:01:24;;;;;;;0.10;0.10;;;13.30;99.90;;;;;;4970282;28;20031;-70
2022/06/21 02:03:55;;;;;;;0.52;0.25;;;13.30;99.90;;;;;;4970081;28;20039;-69
2022/06/21 02:06:25;;;;;;;0.28;0.20;;;13.20;99.90;;;;;;4970661;28;20038;-69
2022/06/21 02:09:07;;;;;;;0.00;0.00;;;13.00;99.90;;;;;;4969999;28;20050;-69
2022/06/21 02:12:02;;;;;;;0.00;0.00;;;13.00;99.90;;;;;;4970347;28;20034;-69
2022/06/21 02:14:29;;;;;;;0.00;0.00;;;12.90;99.90;;;;;;4971203;28;20027;-69
2022/06/21 02:17:23;;;;;;;5.93;1.48;;;12.80;99.90;;;;;;4986033;28;20054;-69
2022/06/21 02:19:56;;;;;;;0.00;0.00;;;12.80;99.90;;;;;;4976056;28;20133;-69
2022/06/21 02:22:26;;;;;;;0.38;0.38;;;12.70;99.90;;;;;;4985809;28;20031;-69
2022/06/21 02:24:54;;;;;;;0.00;0.00;;;12.80;99.90;;;;;;4971606;28;20031;-69
2022/06/21 02:27:27;;;;;;;0.00;0.00;;;13.10;99.90;;;;;;4970183;28;20035;-69
2022/06/21 02:29:58;;;;;;;1.10;0.55;;;13.20;99.90;;;;;;4985471;28;20023;-69
2022/06/21 02:32:26;;;;;;;;;;;13.10;99.90;;;;;;4986300;28;20640;-69
2022/06/21 02:34:59;;;;;;;0.00;0.00;;;12.70;99.90;;;;;;4986267;28;19910;-69
2022/06/21 02:37:28;;;;;;;0.00;0.00;;;12.70;99.90;;;;;;4985816;28;20034;-69
2022/06/21 02:39:56;;;;;;;0.10;0.10;;;12.80;99.90;;;;;;5005979;22;20054;-70
2022/06/21 02:42:29;;;;;;;0.63;0.40;;;12.70;99.90;;;;;;4979630;28;20058;-70
2022/06/21 02:45:06;;;;;;;4.10;1.17;;;12.70;99.90;;;;;;4973144;28;20807;-70
2022/06/21 02:47:40;;;;;;;0.00;0.00;;;13.00;99.90;;;;;;4973476;28;20019;-69
2022/06/21 02:50:35;;;;;;;0.15;0.15;;;13.00;99.90;;;;;;4972996;28;20031;-70
2022/06/21 02:53:11;;;;;;;0.10;0.10;;;12.90;99.90;;;;;;4988412;28;20109;-71
2022/06/21 02:56:00;;;;;;;0.43;0.43;;;12.80;99.90;;;;;;4988327;28;20042;-70
2022/06/21 02:58:30;;;;;;;0.25;0.25;;;12.90;99.90;;;;;;4974132;28;20035;-69
2022/06/21 03:01:02;;;;;;;0.10;0.10;;;13.00;99.90;;;;;;4988829;28;20114;-70
2022/06/21 03:03:31;;;;;;;0.28;0.22;;;12.90;99.90;;;;;;4985730;28;20027;-70
2022/06/21 03:06:01;;;;;;;0.52;0.43;;;13.10;99.90;;;;;;4990251;28;20026;-70
2022/06/21 03:08:31;;;;;;;0.00;0.00;;;13.20;99.90;;;;;;4969166;28;20109;-69
2022/06/21 03:10:59;;;;;;;1.20;0.40;;;13.20;99.90;;;;;;4990913;28;20073;-69
2022/06/21 03:13:31;;;;;;;0.00;0.00;;;13.30;99.90;;;;;;4973994;28;20050;-69
2022/06/21 03:16:03;;;;;;;1.23;0.75;;;13.40;99.90;;;;;;4973027;28;20030;-69
2022/06/21 03:18:51;;;;;;;0.10;0.10;;;13.50;99.90;;;;;;4972323;28;20027;-69
2022/06/21 03:21:32;;;;;;;0.08;0.08;;;13.30;99.90;;;;;;4972656;28;20101;-69
2022/06/21 03:24:03;;;;;;;0.20;0.20;;;13.30;99.90;;;;;;4957308;28;20031;-70
2022/06/21 03:26:30;;;;;;;0.38;0.35;;;13.00;99.90;;;;;;4972352;28;20063;-69
2022/06/21 03:28:57;;;;;;;0.00;0.00;;;12.90;99.90;;;;;;4971944;28;20111;-69
2022/06/21 03:31:29;;;;;;;0.00;0.00;;;12.90;99.90;;;;;;4973478;28;20031;-68
2022/06/21 03:34:03;;;;;;;0.00;0.00;;;12.70;99.90;;;;;;4973180;28;20142;-70
2022/06/21 03:36:29;;;;;;;0.43;0.20;;;12.60;99.90;;;;;;4972286;28;20038;-71
2022/06/21 03:39:02;;;;;;;0.10;0.10;;;12.70;99.90;;;;;;4972653;28;20038;-70
2022/06/21 03:41:44;;;;;;;0.00;0.00;;;12.60;99.90;;;;;;4971825;28;20031;-70
2022/06/21 03:44:26;;;;;;;;;;;12.50;99.90;;;;;;4973882;28;20463;-70
2022/06/21 03:46:55;;;;;;;0.15;0.15;;;12.60;99.90;;;;;;4972697;28;20359;-70
2022/06/21 03:49:55;;;;;;;24.48;1.92;;;13.00;99.90;;;;;;4945511;28;20430;-70
2022/06/21 03:53:05;;;;;;;0.10;0.10;;;13.10;99.90;;;;;;4972305;28;20039;-70
2022/06/21 03:56:05;;;;;;;0.00;0.00;;;13.10;99.90;;;;;;4972677;28;20062;-70
2022/06/21 03:58:53;;;;;;;0.00;0.00;;;13.20;99.90;;;;;;4964492;28;20035;-70
2022/06/21 04:01:50;;;;;;;0.10;0.10;;;13.30;99.90;;;;;;4974238;28;20430;-72
2022/06/21 04:04:31;;;;;;;0.17;0.17;;;13.40;99.90;;;;;;4972205;28;20117;-71
2022/06/21 04:07:28;;;;;;;0.05;0.05;;;13.60;99.90;;;;;;4970525;28;20078;-70
2022/06/21 04:10:27;;;;;;;0.03;0.03;;;13.70;99.90;;;;;;4970490;28;20066;-70
2022/06/21 04:13:12;;;;;;;0.20;0.20;;;13.90;99.90;;;;;;4969221;28;20415;-71
2022/06/21 04:16:09;;;;;;;3.50;1.75;;;14.10;99.90;;;;;;4968547;28;20030;-71
2022/06/21 04:19:08;;;;;;;0.15;0.15;;;14.30;99.90;;;;;;4972184;28;20743;-71
2022/06/21 04:21:53;;;;;;;0.95;0.77;;;14.10;99.90;;;;;;4972352;28;20093;-71
2022/06/21 04:24:45;;;;;;;0.32;0.32;;;14.10;99.90;;;;;;4971397;28;20027;-71
2022/06/21 04:27:42;;;;;;;0.10;0.10;;;13.90;99.90;;;;;;4972513;28;20031;-71
2022/06/21 04:30:17;;;;;;;0.50;0.50;;;14.00;99.90;;;;;;4983212;28;20113;-71
2022/06/21 04:33:13;;;;;;;0.00;0.00;;;14.00;99.90;;;;;;4970793;28;20511;-71
2022/06/21 04:35:50;;;;;;;0.57;0.30;;;14.30;99.90;;;;;;4965806;28;20556;-73
2022/06/21 04:38:41;;;;;;;0.65;0.65;;;14.40;99.90;;;;;;4982045;28;20480;-73
2022/06/21 04:41:34;;;;;;;0.20;0.20;;;14.00;99.90;;;;;;4952516;28;20041;-71
2022/06/21 04:44:07;;;;;;;1.02;0.85;;;14.00;99.90;;;;;;4978158;28;20082;-71
2022/06/21 04:46:54;;;;;;;0.35;0.35;;;13.90;99.90;;;;;;4986668;28;20117;-71
2022/06/21 04:49:37;;;;;;;0.25;0.25;;;14.10;99.90;;;;;;4971728;28;20038;-71
2022/06/21 04:52:15;;;;;;;0.55;0.55;;;14.30;99.90;;;;;;4955521;28;20049;-71
2022/06/21 04:54:41;;;;;;;0.25;0.25;;;14.40;99.90;;;;;;4970819;28;20054;-71
2022/06/21 04:57:19;;;;;;;0.00;0.00;;;14.60;99.90;;;;;;4986669;28;20037;-71
2022/06/21 05:00:05;;;;;;;0.50;0.50;;;14.50;99.90;;;;;;4985045;28;20038;-71
2022/06/21 05:02:40;;;;;;;0.30;0.30;;;14.40;99.90;;;;;;4984667;28;20031;-71
2022/06/21 05:05:25;;;;;;;0.00;0.00;;;14.10;99.90;;;;;;4971445;28;20081;-64
2022/06/21 05:08:10;;;;;;;1.10;0.50;;;14.30;99.90;;;;;;4971695;28;20050;-65
2022/06/21 05:10:42;;;;;;;1.67;0.88;;;14.50;99.90;;;;;;4970695;28;20022;-66
2022/06/21 05:13:20;;;;;;;0.45;0.43;;;14.80;99.90;;;;;;4953516;28;20394;-66
2022/06/21 05:15:46;;;;;;;0.55;0.55;;;15.10;99.90;;;;;;4952985;28;20499;-66
2022/06/21 05:18:29;;;;;;;0.10;0.10;;;15.40;99.90;;;;;;4971205;28;20117;-75
2022/06/21 05:21:01;;;;;;;0.08;0.08;;;15.10;99.90;;;;;;4986556;28;20030;-69
2022/06/21 05:23:29;;;;;;;0.00;0.00;;;15.30;99.90;;;;;;4970145;28;20026;-69
2022/06/21 05:25:59;;;;;;;0.45;0.45;;;15.10;99.90;;;;;;4969966;28;20027;-69
2022/06/21 05:28:47;;;;;;;0.10;0.10;;;15.20;99.90;;;;;;4985893;28;20031;-70
2022/06/21 05:31:28;;;;;;;0.35;0.35;;;15.10;99.90;;;;;;4985161;28;20043;-69
2022/06/21 05:34:14;;;;;;;1.83;1.42;;;15.20;99.90;;;;;;4985667;28;20038;-69
2022/06/21 05:36:58;;;;;;;0.10;0.10;;;15.30;99.90;;;;;;4984685;28;20053;-69
2022/06/21 05:39:35;;;;;;;0.00;0.00;;;15.40;99.90;;;;;;4985673;28;20096;-69
2022/06/21 05:42:04;;;;;;;0.00;0.00;;;15.70;99.90;;;;;;4985831;28;20109;-69
2022/06/21 05:44:36;;;;;;;26.17;0.85;;;15.80;99.90;;;;;;4971865;28;20038;-69
2022/06/21 05:47:37;;;;;;;0.05;0.05;;;15.80;99.90;;;;;;4986009;28;20078;-68
2022/06/21 05:50:09;;;;;;;0.38;0.10;;;15.80;99.90;;;;;;4970816;28;20037;-69
2022/06/21 05:52:42;;;;;;;0.70;0.68;;;15.90;99.90;;;;;;4986006;28;20557;-68
2022/06/21 05:55:23;;;;;;;1.65;0.60;;;16.10;99.90;;;;;;4973927;28;20043;-69
2022/06/21 05:58:03;;;;;;;0.57;0.13;;;16.20;99.90;;;;;;4969378;28;20550;-69
2022/06/21 06:00:44;;;;;;;0.10;0.10;;;16.30;99.90;;;;;;4985228;28;20107;-69
2022/06/21 06:03:20;;;;;;;0.97;0.30;;;16.50;99.90;;;;;;4968618;28;20035;-70
2022/06/21 06:05:47;;;;;;;0.03;0.03;;;16.70;99.90;;;;;;4971526;28;20026;-69
2022/06/21 06:08:23;;;;;;;0.00;0.00;;;16.80;99.90;;;;;;4971331;28;20054;-69
2022/06/21 06:10:50;;;;;;;0.28;0.17;;;16.90;99.90;;;;;;4970169;28;20073;-69
2022/06/21 06:13:24;;;;;;;0.50;0.50;;;17.20;99.90;;;;;;4971176;28;20023;-70
2022/06/21 06:15:59;;;;;;;0.40;0.30;;;17.40;99.90;;;;;;4971924;28;20088;-69
2022/06/21 06:18:47;;;;;;;0.05;0.03;;;17.40;99.90;;;;;;4973698;28;20113;-69
2022/06/21 06:21:24;;;;;;;0.20;0.20;;;17.50;99.90;;;;;;4974179;28;20033;-69
2022/06/21 06:24:03;;;;;;;0.17;0.17;;;17.70;99.90;;;;;;4973979;28;20392;-69
2022/06/21 06:26:38;;;;;;;0.10;0.10;;;17.90;99.70;;;;;;4954548;29;20041;-69
2022/06/21 06:29:35;;;;;;;0.20;0.20;;;17.90;98.90;;;;;;4954014;28;20428;-69
2022/06/21 06:32:36;;;;;;;0.13;0.10;;;17.90;99.00;;;;;;4970490;28;20031;-70
2022/06/21 06:35:03;;;;;;;0.10;0.10;;;17.90;99.10;;;;;;4969986;28;20090;-69
2022/06/21 06:37:37;;;;;;;0.20;0.20;;;17.90;99.10;;;;;;4953902;29;20047;-69
2022/06/21 06:40:06;;;;;;;0.00;0.00;;;18.10;98.90;;;;;;4953392;28;20499;-69
2022/06/21 06:42:39;;;;;;;0.90;0.73;;;18.10;97.70;;;;;;4954395;29;20031;-69
2022/06/21 06:45:20;;;;;;;0.35;0.35;;;18.10;97.90;;;;;;4954464;29;20035;-69
2022/06/21 06:47:53;;;;;;;0.00;0.00;;;18.20;97.80;;;;;;4955459;29;20054;-69
2022/06/21 06:50:33;;;;;;;0.00;0.00;;;18.30;97.00;;;;;;4953743;28;20074;-69
2022/06/21 06:53:02;;;;;;;0.43;0.43;;;18.40;97.30;;;;;;4953779;29;20023;-69
2022/06/21 06:55:54;;;;;;;0.05;0.05;;;18.50;96.20;;;;;;4965952;28;20042;-69
2022/06/21 06:58:40;;;;;;;1.60;0.70;;;18.40;96.10;;;;;;4974185;28;20038;-69
2022/06/21 07:01:18;;;;;;;0.80;0.75;;;18.40;96.10;;;;;;4989420;28;20451;-69
2022/06/21 07:04:03;;;;;;;0.17;0.17;;;18.40;96.00;;;;;;4988505;28;20030;-70
2022/06/21 07:06:49;;;;;;;0.30;0.25;;;18.40;96.40;;;;;;4989134;28;20095;-69
2022/06/21 07:09:26;;;;;;;0.20;0.20;;;18.60;96.60;;;;;;4988305;28;20031;-69
2022/06/21 07:12:16;;;;;;;0.00;0.00;;;18.80;96.00;;;;;;4988943;28;20093;-69
2022/06/21 07:14:43;;;;;;;0.10;0.10;;;18.80;95.50;;;;;;4973967;28;20031;-69
2022/06/21 07:17:56;;;;;;;0.00;0.00;;;18.70;95.90;;;;;;5002973;28;20042;-69
2022/06/21 07:20:45;;;;;;;0.20;0.20;;;18.90;94.90;;;;;;5005201;28;20035;-69
2022/06/21 07:23:19;;;;;;;0.00;0.00;;;19.00;93.00;;;;;;5004526;28;20100;-69
2022/06/21 07:25:58;;;;;;;0.13;0.13;;;19.40;94.40;;;;;;4973470;28;20507;-68
2022/06/21 07:28:38;;;;;;;0.20;0.20;;;19.40;93.00;;;;;;4987844;28;20062;-69
2022/06/21 07:31:25;;;;;;;0.00;0.00;;;19.70;92.10;;;;;;4989095;28;20657;-69
2022/06/21 07:34:15;;;;;;;0.00;0.00;;;19.70;91.70;;;;;;4974027;28;20031;-69
2022/06/21 07:37:11;;;;;;;0.00;0.00;;;19.70;91.30;;;;;;4973957;28;20031;-68
2022/06/21 07:39:45;;;;;;;0.00;0.00;;;19.80;91.00;;;;;;4985353;28;20037;-69
2022/06/21 07:43:07;;;;;;;6.88;0.38;;;19.80;90.80;;;;;;4988169;28;20109;-69
2022/06/21 07:45:45;;;;;;;0.00;0.00;;;20.10;90.60;;;;;;4894609;29;20037;-69
2022/06/21 07:48:27;;;;;;;0.00;0.00;;;20.50;91.10;;;;;;4961902;28;20070;-69
2022/06/21 07:51:14;;;;;;;1.38;1.27;;;20.40;91.20;;;;;;4987953;28;20034;-69
2022/06/21 07:53:46;;;;;;;0.68;0.30;;;20.30;91.60;;;;;;4986938;28;20491;-69
2022/06/21 07:56:40;;;;;;;0.40;0.40;;;20.30;91.30;;;;;;4973074;28;20039;-69
2022/06/21 07:59:21;;;;;;;0.00;0.00;;;20.50;91.10;;;;;;4972639;28;20114;-69
2022/06/21 08:08:03;;;;;;;0.38;0.28;;;20.30;91.20;;;;;;4971975;28;20037;-69
2022/06/21 08:10:46;;;;;;;0.20;0.20;;;20.50;90.90;;;;;;4971517;28;20027;-69
2022/06/21 08:13:12;;;;;;;0.15;0.10;;;20.70;90.90;;;;;;4973291;28;20023;-68
2022/06/21 08:15:58;;;;;;;0.00;0.00;;;20.80;90.70;;;;;;4966724;28;20507;-68
2022/06/21 08:19:04;;;;;;;0.05;0.05;;;21.10;90.90;;;;;;4952590;28;20043;-69
2022/06/21 08:21:46;;;;;;;0.00;0.00;;;20.90;90.80;;;;;;4952752;29;20138;-69
2022/06/21 08:24:42;;;;;;;0.08;0.08;;;21.00;90.10;;;;;;4954045;28;20027;-69
2022/06/21 08:27:29;;;;;;;0.00;0.00;;;21.00;89.80;;;;;;4985608;28;20034;-69
2022/06/21 08:30:30;;;;;;;0.35;0.35;;;21.00;88.50;;;;;;4986261;28;20186;-68
2022/06/21 08:33:05;;;;;;;0.10;0.10;;;21.20;87.90;;;;;;4972367;28;20031;-69
2022/06/21 08:36:05;;;;;;;0.10;0.10;;;21.00;87.30;;;;;;4973026;28;20039;-68
2022/06/21 08:38:46;;;;;;;0.05;0.03;;;20.90;86.20;;;;;;4971814;28;20031;-68
2022/06/21 08:42:14;;;;;;;0.00;0.00;;;20.80;85.90;;;;;;4969277;23;1074957;-67
2022/06/21 08:45:42;;;;;;;0.10;0.10;;;21.00;86.10;;;;;;4934039;29;20488;-67
2022/06/21 08:48:51;;;;;;;0.03;0.03;;;21.10;86.20;;;;;;4933994;29;20040;-67
2022/06/21 08:51:40;;;;;;;0.00;0.00;;;21.30;87.00;;;;;;4934000;29;20511;-67
2022/06/21 08:54:30;;;;;;;0.00;0.00;;;21.10;86.20;;;;;;4949452;29;20040;-67
2022/06/21 08:57:16;;;;;;;0.00;0.00;;;21.40;88.10;;;;;;4953332;28;20027;-67
2022/06/21 08:59:59;;;;;;;1.08;0.65;;;21.80;85.20;;;;;;4951483;28;20042;-67
2022/06/21 09:03:17;;;;;;;0.10;0.10;;;22.10;85.10;;;;;;4952940;28;20035;-67
2022/06/21 09:06:34;;;;;;;0.38;0.28;;;22.30;84.90;;;;;;4930047;29;20039;-67
2022/06/21 09:09:34;;;;;;;0.82;0.60;;;22.20;84.50;;;;;;4919718;28;20411;-67
2022/06/21 09:12:54;;;;;;;0.00;0.00;;;22.40;84.30;;;;;;4951735;29;20097;-67
2022/06/21 09:16:00;;;;;;;0.27;0.27;;;22.50;84.20;;;;;;4951528;29;20031;-67
2022/06/21 09:19:32;;;;;;;0.00;0.00;;;22.00;83.80;;;;;;4952316;28;20043;-67
2022/06/21 09:22:32;;;;;;;0.10;0.08;;;22.00;83.30;;;;;;4931200;29;20031;-67
2022/06/21 09:25:21;;;;;;;1.45;0.63;;;22.20;82.10;;;;;;4952809;29;20172;-67
2022/06/21 09:27:51;;;;;;;0.00;0.00;;;22.30;82.10;;;;;;4951589;28;20447;-67
2022/06/21 09:30:32;;;;;;;0.20;0.20;;;22.60;80.40;;;;;;4952434;28;20114;-67
2022/06/21 09:33:22;;;;;;;0.10;0.10;;;23.00;79.60;;;;;;4951491;29;20031;-67
2022/06/21 09:36:14;;;;;;;0.00;0.00;;;23.10;79.30;;;;;;4967331;28;20423;-67
2022/06/21 09:39:00;;;;;;;0.05;0.05;;;23.40;78.60;;;;;;4951967;28;20504;-67
2022/06/21 09:41:47;;;;;;;0.05;0.00;;;23.70;75.50;;;;;;4952114;28;20039;-67
2022/06/21 09:44:37;;;;;;;0.00;0.00;;;23.60;76.00;;;;;;4952555;28;20561;-67
2022/06/21 09:47:47;;;;;;;0.10;0.10;;;23.70;73.20;;;;;;4952154;28;20031;-68
2022/06/21 09:50:59;;;;;;;0.28;0.22;;;23.70;73.30;;;;;;4895354;29;20115;-68
2022/06/21 09:54:05;;;;;;;0.10;0.10;;;23.40;73.10;;;;;;4956133;28;20042;-68
2022/06/21 09:57:10;;;;;;;0.20;0.20;;;22.90;73.10;;;;;;4949087;29;20102;-67
2022/06/21 09:59:55;;;;;;;0.10;0.10;;;23.20;73.90;;;;;;4955717;29;20046;-67
2022/06/21 10:03:04;;;;;;;0.00;0.00;;;23.10;74.60;;;;;;4955077;29;20028;-67
2022/06/21 10:05:53;;;;;;;0.00;0.00;;;23.20;74.30;;;;;;4955458;29;20039;-67
2022/06/21 10:08:44;;;;;;;0.20;0.20;;;23.50;74.50;;;;;;4954994;29;20402;-67
2022/06/21 10:11:19;;;;;;;;;;;23.60;74.50;;;;;;4954997;29;20035;-67
2022/06/21 10:14:03;;;;;;;0.10;0.10;;;23.30;74.40;;;;;;4955821;29;20016;-67
2022/06/21 10:16:33;;;;;;;1.45;0.38;;;22.70;75.70;;;;;;4942739;29;20032;-68
2022/06/21 10:19:28;;;;;;;0.20;0.20;;;23.10;75.80;;;;;;4966863;28;20039;-68
2022/06/21 10:22:23;;;;;;;1.08;0.17;;;23.50;75.30;;;;;;4937130;28;20036;-68
2022/06/21 10:25:04;;;;;;;0.22;0.22;;;23.80;74.30;;;;;;4943751;28;20027;-68
2022/06/21 10:27:51;;;;;;;1.08;0.98;;;23.80;75.40;;;;;;4956126;29;20033;-67
2022/06/21 10:30:30;;;;;;;4.47;1.10;;;24.00;72.90;;;;;;4955550;28;20050;-68
2022/06/21 10:33:05;;;;;;;0.00;0.00;;;24.20;73.80;;;;;;4987036;28;20395;-67
2022/06/21 10:35:42;;;;;;;3.90;0.75;;;24.50;74.20;;;;;;4955961;29;20039;-68
2022/06/21 10:38:55;;;;;;;0.00;0.00;;;24.80;73.60;;;;;;4955271;29;20550;-68
2022/06/21 10:45:01;;;;;;;2.03;0.43;;;25.10;71.70;;;;;;4977788;28;20031;-67
2022/06/21 10:47:58;;;;;;;0.03;0.03;;;25.30;71.80;;;;;;4985219;28;20039;-68
2022/06/21 10:50:41;;;;;;;0.00;0.00;;;25.00;72.30;;;;;;4955230;28;20257;-67
2022/06/21 10:53:39;;;;;;;0.15;0.10;;;25.30;71.50;;;;;;4985771;28;20087;-68
2022/06/21 10:57:12;;;;;;;0.00;0.00;;;25.50;71.30;;;;;;4982419;28;20436;-68
2022/06/21 11:02:54;;;;;;;0.03;0.03;;;25.50;71.10;;;;;;4954986;28;20047;-67
2022/06/21 11:06:01;;;;;;;0.10;0.10;;;25.80;70.00;;;;;;4954670;29;20065;-68
2022/06/21 11:08:50;;;;;;;0.00;0.00;;;25.80;71.00;;;;;;4955049;29;20035;-68
2022/06/21 11:11:31;;;;;;;0.98;0.55;;;25.90;71.10;;;;;;4983814;28;20051;-67
2022/06/21 11:14:33;;;;;;;0.08;0.08;;;26.20;69.50;;;;;;4955049;29;20384;-68
2022/06/21 11:17:23;;;;;;;0.20;0.20;;;26.30;70.00;;;;;;4985890;28;20538;-67
2022/06/21 11:20:36;;;;;;;0.00;0.00;;;26.10;70.50;;;;;;4954223;28;20042;-68
2022/06/21 11:23:33;;;;;;;0.00;0.00;;;26.30;70.90;;;;;;4954857;29;20443;-67
2022/06/21 11:26:05;;;;;;;0.00;0.00;;;26.50;68.40;;;;;;4936838;29;20083;-68
2022/06/21 11:28:50;;;;;;;0.65;0.65;;;26.30;68.80;;;;;;4935259;29;20039;-68
2022/06/21 11:31:43;;;;;;;0.28;0.28;;;26.90;68.70;;;;;;4935434;29;20035;-67
2022/06/21 11:34:45;;;;;;;0.00;0.00;;;27.80;69.00;;;;;;4935255;29;20416;-68
2022/06/21 11:37:35;;;;;;;0.47;0.10;;;27.80;66.70;;;;;;4935418;29;20039;-68
2022/06/21 11:40:29;;;;;;;0.88;0.32;;;27.20;67.10;;;;;;4934972;29;20066;-67
2022/06/21 11:42:59;;;;;;;0.15;0.15;;;27.20;67.00;;;;;;4942144;28;20384;-67
2022/06/21 11:46:14;;;;;;;0.00;0.00;;;26.80;66.60;;;;;;4952849;29;20142;-68
2022/06/21 11:49:04;;;;;;;0.00;0.00;;;26.40;66.90;;;;;;4953897;29;20082;-68
2022/06/21 11:52:28;;;;;;;0.70;0.38;;;26.80;67.20;;;;;;4954383;28;20027;-68
2022/06/21 11:55:29;;;;;;;0.00;0.00;;;27.10;67.00;;;;;;4950249;29;20042;-67
2022/06/21 11:58:17;;;;;;;0.00;0.00;;;27.00;67.00;;;;;;4954249;29;20480;-68
2022/06/21 12:00:53;;;;;;;0.35;0.35;;;26.80;66.80;;;;;;4953093;28;20031;-68
2022/06/21 12:03:32;;;;;;;0.10;0.10;;;27.30;66.40;;;;;;4952957;29;20035;-67
2022/06/21 12:06:10;;;;;;;0.08;0.03;;;27.50;65.80;;;;;;4954189;28;20035;-67
2022/06/21 12:08:55;;;;;;;0.10;0.10;;;27.60;67.40;;;;;;4952370;29;20114;-67
2022/06/21 12:12:05;;;;;;;0.10;0.10;;;28.00;67.70;;;;;;4952578;29;20031;-68
2022/06/21 12:15:07;;;;;;;0.00;0.00;;;28.00;68.30;;;;;;4952235;29;20035;-67
2022/06/21 12:17:41;;;;;;;0.05;0.00;;;28.40;67.60;;;;;;4934404;29;20036;-68
2022/06/21 12:20:20;;;;;;;10.70;0.90;;;28.30;68.50;;;;;;4934185;29;20028;-66
2022/06/21 12:23:05;;;;;;;0.20;0.15;;;27.60;67.30;;;;;;4948647;29;20039;-67
2022/06/21 12:25:31;;;;;;;1.38;0.93;;;28.00;68.20;;;;;;4960875;28;20031;-68
2022/06/21 12:27:59;;;;;;;9.02;2.97;;;28.30;67.90;;;;;;4984658;28;20360;-68
2022/06/21 12:30:30;;;;;;;0.25;0.25;;;28.40;66.50;;;;;;4983576;28;20068;-68
2022/06/21 12:33:01;;;;;;;0.15;0.15;;;28.30;67.70;;;;;;4983796;28;20463;-67
2022/06/21 12:36:21;;;;;;;0.08;0.08;;;28.10;67.40;;;;;;4983739;28;20023;-67
2022/06/21 12:39:10;;;;;;;1.45;0.43;;;27.80;67.30;;;;;;4981273;28;20030;-68
2022/06/21 12:41:56;;;;;;;0.00;0.00;;;28.30;67.40;;;;;;4983528;28;20038;-67
2022/06/21 12:44:58;;;;;;;0.00;0.00;;;28.30;67.30;;;;;;4984321;28;20039;-68
2022/06/21 12:47:58;;;;;;;0.00;0.00;;;28.70;67.70;;;;;;4979765;28;20031;-67
2022/06/21 12:50:43;;;;;;;0.28;0.28;;;29.40;66.30;;;;;;4952859;28;20041;-68
2022/06/21 12:53:34;;;;;;;0.22;0.10;;;28.90;65.90;;;;;;4953090;29;20153;-68
2022/06/21 12:56:06;;;;;;;0.20;0.20;;;29.60;64.80;;;;;;4952871;29;20475;-68
2022/06/21 12:58:35;;;;;;;0.00;0.00;;;29.20;64.50;;;;;;4952918;29;20439;-67
2022/06/21 13:01:12;;;;;;;0.10;0.05;;;28.60;64.70;;;;;;4952810;28;20070;-67
2022/06/21 13:04:09;;;;;;;0.00;0.00;;;28.30;65.80;;;;;;4982034;28;20081;-68
2022/06/21 13:07:18;;;;;;;2.92;0.68;;;28.90;66.40;;;;;;4953100;29;20031;-68
2022/06/21 13:10:00;;;;;;;0.20;0.10;;;29.00;65.70;;;;;;4952499;28;20412;-67
2022/06/21 13:13:03;;;;;;;0.10;0.10;;;28.90;64.50;;;;;;4952817;29;20058;-68
2022/06/21 13:15:54;;;;;;;0.00;0.00;;;29.40;65.60;;;;;;4978755;28;20027;-68
2022/06/21 13:18:50;;;;;;;0.30;0.13;;;29.60;64.60;;;;;;4952561;28;20558;-67
2022/06/21 13:22:09;;;;;;;0.50;0.22;;;29.40;65.00;;;;;;4951125;28;20027;-68
2022/06/21 13:25:02;;;;;;;0.15;0.08;;;29.50;64.70;;;;;;4951430;28;20440;-68
2022/06/21 13:27:54;;;;;;;0.00;0.00;;;29.00;64.80;;;;;;4983660;28;20027;-66
2022/06/21 13:30:44;;;;;;;0.55;0.43;;;28.60;66.10;;;;;;4952360;28;20042;-65
2022/06/21 13:33:15;;;;;;;0.20;0.15;;;28.50;66.70;;;;;;4952345;29;20038;-65
2022/06/21 13:35:50;;;;;;;0.10;0.08;;;29.10;66.80;;;;;;4983423;28;20035;-66
2022/06/21 13:39:11;;;;;;;0.15;0.10;;;29.00;66.50;;;;;;4982864;28;20074;-65
2022/06/21 13:45:04;;;;;;;0.00;0.00;;;30.80;64.70;;;;;;4975353;28;20038;-66
2022/06/21 13:47:58;;;;;;;0.45;0.45;;;31.70;64.10;;;;;;4983025;28;20032;-66
2022/06/21 13:50:36;;;;;;;0.20;0.20;;;31.10;63.40;;;;;;4968746;28;20038;-66
2022/06/21 13:53:33;;;;;;;1.08;0.22;;;31.20;62.50;;;;;;4986231;28;20034;-66
2022/06/21 13:56:23;;;;;;;2.45;0.85;;;31.30;61.50;;;;;;4965128;28;20449;-65
2022/06/21 13:58:58;;;;;;;0.55;0.52;;;30.90;62.30;;;;;;4932623;29;20027;-66
2022/06/21 14:02:06;;;;;;;0.30;0.25;;;31.50;63.30;;;;;;4946859;28;20031;-66
2022/06/21 14:05:06;;;;;;;1.02;0.47;;;31.40;61.60;;;;;;4899365;28;20054;-65
2022/06/21 14:07:44;;;;;;;0.10;0.03;;;30.40;63.20;;;;;;4950770;29;20373;-66
2022/06/21 14:10:30;;;;;;;0.20;0.20;;;31.40;62.30;;;;;;4950492;29;20039;-67
2022/06/21 14:13:59;;;;;;;0.30;0.30;;;32.40;60.30;;;;;;4951874;28;20027;-66
2022/06/21 14:16:46;;;;;;;0.00;0.00;;;33.30;59.60;;;;;;4940016;29;20046;-68
2022/06/21 14:19:40;;;;;;;0.13;0.10;;;32.10;61.00;;;;;;4946709;28;20106;-66
2022/06/21 14:22:12;;;;;;;0.05;0.05;;;33.50;60.00;;;;;;4962102;28;20028;-66
2022/06/21 14:24:55;;;;;;;0.20;0.20;;;34.30;59.20;;;;;;4969032;28;20023;-66
2022/06/21 14:27:44;;;;;;;1.75;0.20;;;34.80;57.70;;;;;;4950628;29;20031;-66
2022/06/21 14:30:34;;;;;;;2.38;0.50;;;33.60;58.40;;;;;;4950451;28;20488;-65
2022/06/21 14:33:27;;;;;;;1.75;0.20;;;32.30;59.50;;;;;;4950798;29;20145;-65